Delavan, IL (61734)

7:33 AM CDT on July 25, 2016 (GMT -0500)
KILDELAV2 | | Change Station

Elev 597 ft 40.37 °N, 89.55 °W | Updated 5 minutes ago

Clear
Clear
75.3 °F
Feels Like 74 °F
N
0.0
Wind Variable Wind from SE
Gusts 1.0 mph

Today
High -- | Low -- °F
--% Chance of Precip.
Yesterday
High -- | Low -- °F
Precip. -- in
Pressure 29.98 in
Visibility 10.0 miles
Clouds Clear
Heat Index 74 °F
Dew Point 73 °F
Humidity 92%
Rainfall 0.87 in
Snow Depth Not available.
5:49 AM 8:19 PM
Waning Gibbous, 66% visible
METAR KAAA 251215Z AUTO 00000KT 10SM CLR 23/23 A2998 RMK AO2 T02300225
Pressure 29.98 in
Visibility 10.0 miles
Clouds Clear
Heat Index 74 °F
Dew Point 73 °F
Humidity 92%
Rainfall 0.87 in
Snow Depth Not available.
5:49 AM 8:19 PM
Waning Gibbous, 66% visible
METAR KAAA 251215Z AUTO 00000KT 10SM CLR 23/23 A2998 RMK AO2 T02300225

10-Day Weather Forecast

Almanac

Astronomy

Jul. 25, 2016 Rise Set
Actual Time
Civil Twilight
Nautical Twilight
Astronomical Twilight
Moon
Length of Visible Light
Length of Day
Tomorrow will be .
, % of the Moon is Illuminated

Today's Extremes

State Highs State Lows

Community

WunderPhotos

Upload Photos

1,927,296 photos uploaded!

WunderBlog® & News

Nearby

Air Quality

  Air Quality AQ Index Pollutant
Not available.

Snow Depth

Station Depth Elevation

Earthquake Activity

City Distance Mag. Time & Date
Minimum magnitude displayed is 2.5.

Coastal Water Temperatures

Place Temperature

Stations

Nearby Weather Stations

Station Location Temp. Windchill Dew Point Humidity Wind Precip. Elev Updated Type
                   

Watches & Warnings

There are currently no watches in effect.